createdAt,value
2022-10-23T00:01:01.655Z,100.00
2022-10-23T00:03:28.564Z,100.00
2022-10-23T00:05:55.451Z,100.00
2022-10-23T00:08:22.233Z,100.00
2022-10-23T00:10:57.477Z,100.00
2022-10-23T00:13:24.303Z,100.00
2022-10-23T00:18:22.798Z,100.00
2022-10-23T00:20:49.644Z,100.00
2022-10-23T00:23:17.112Z,100.00
2022-10-23T00:25:43.947Z,100.00
2022-10-23T00:28:10.917Z,100.00
2022-10-23T00:30:37.758Z,100.00
2022-10-23T00:33:04.532Z,100.00
2022-10-23T00:35:31.354Z,100.00
2022-10-23T00:37:58.198Z,100.00
2022-10-23T00:40:24.989Z,100.00
2022-10-23T00:42:51.818Z,100.00
2022-10-23T00:45:22.615Z,100.00
2022-10-23T00:47:49.898Z,100.00
2022-10-23T00:50:17.666Z,100.00
2022-10-23T00:52:49.679Z,100.00
2022-10-23T00:55:17.676Z,100.00
2022-10-23T00:57:47.006Z,100.00
2022-10-23T01:00:18.501Z,100.00
2022-10-23T01:02:45.777Z,100.00
2022-10-23T01:05:12.802Z,100.00
2022-10-23T01:07:48.203Z,100.00
2022-10-23T01:10:47.614Z,100.00
2022-10-23T01:13:35.683Z,100.00
2022-10-23T01:16:06.037Z,100.00
2022-10-23T01:18:46.815Z,100.00
2022-10-23T01:21:19.224Z,100.00
2022-10-23T01:24:04.786Z,100.00
2022-10-23T01:26:49.581Z,100.00
2022-10-23T01:29:25.162Z,100.00
2022-10-23T01:31:56.347Z,100.00
2022-10-23T01:34:32.863Z,100.00
2022-10-23T01:37:01.661Z,100.00
2022-10-23T01:39:33.625Z,100.00
2022-10-23T01:42:05.991Z,100.00
2022-10-23T01:44:38.329Z,100.00
2022-10-23T01:47:07.483Z,100.00
2022-10-23T01:49:34.737Z,100.00
2022-10-23T01:52:03.534Z,100.00
2022-10-23T01:54:32.472Z,100.00
2022-10-23T01:56:59.759Z,100.00
2022-10-23T01:59:36.826Z,100.00
2022-10-23T02:02:05.057Z,100.00
2022-10-23T02:04:40.340Z,100.00
2022-10-23T02:07:07.250Z,100.00
2022-10-23T02:09:34.532Z,100.00
2022-10-23T02:12:09.563Z,100.00
2022-10-23T02:14:53.522Z,100.00
2022-10-23T02:17:52.727Z,100.00
2022-10-23T02:20:24.170Z,100.00
2022-10-23T02:23:00.659Z,100.00
2022-10-23T02:25:32.221Z,100.00
2022-10-23T02:28:01.105Z,100.00
2022-10-23T02:30:29.365Z,100.00
2022-10-23T02:32:56.445Z,100.00
2022-10-23T02:35:24.187Z,100.00
2022-10-23T02:37:55.536Z,100.00
2022-10-23T02:40:24.531Z,100.00
2022-10-23T02:42:58.480Z,100.00
2022-10-23T02:45:47.068Z,100.00
2022-10-23T02:48:19.653Z,100.00
2022-10-23T02:50:57.602Z,100.00
2022-10-23T02:53:49.301Z,100.00
2022-10-23T02:56:23.459Z,100.00
2022-10-23T02:59:05.479Z,100.00
2022-10-23T03:01:39.103Z,100.00
2022-10-23T03:04:06.871Z,100.00
2022-10-23T03:06:33.788Z,100.00
2022-10-23T03:09:06.805Z,100.00
2022-10-23T03:11:33.759Z,100.00
2022-10-23T03:14:00.600Z,100.00
2022-10-23T03:16:27.892Z,100.00
2022-10-23T03:18:54.864Z,100.00
2022-10-23T03:21:22.009Z,100.00
2022-10-23T03:23:48.762Z,100.00
2022-10-23T03:26:15.958Z,100.00
2022-10-23T03:28:43.255Z,100.00
2022-10-23T03:31:10.066Z,100.00
2022-10-23T03:33:36.891Z,100.00
2022-10-23T03:36:04.003Z,100.00
2022-10-23T03:38:30.872Z,100.00
2022-10-23T03:40:57.802Z,100.00
2022-10-23T03:43:24.621Z,100.00
2022-10-23T03:45:52.097Z,100.00
2022-10-23T03:48:18.936Z,100.00
2022-10-23T03:50:45.712Z,100.00
2022-10-23T03:53:12.466Z,100.00
2022-10-23T03:55:39.216Z,100.00
2022-10-23T03:58:06.142Z,100.00
2022-10-23T04:00:32.985Z,100.00
2022-10-23T04:02:59.850Z,100.00
2022-10-23T04:05:26.785Z,100.00
2022-10-23T04:07:53.767Z,100.00
2022-10-23T04:10:20.740Z,100.00
2022-10-23T04:12:47.543Z,100.00
2022-10-23T04:15:14.310Z,100.00
2022-10-23T04:17:41.154Z,100.00
2022-10-23T04:20:08.528Z,100.00
2022-10-23T04:22:35.356Z,100.00
2022-10-23T04:25:02.374Z,100.00
2022-10-23T04:27:29.230Z,100.00
2022-10-23T04:29:58.321Z,100.00
2022-10-23T04:32:26.261Z,100.00
2022-10-23T04:34:53.156Z,100.00
2022-10-23T04:37:19.952Z,100.00
2022-10-23T04:39:46.742Z,100.00
2022-10-23T04:42:13.969Z,100.00
2022-10-23T04:44:40.819Z,100.00
2022-10-23T04:47:07.695Z,100.00
2022-10-23T04:49:35.414Z,100.00
2022-10-23T04:52:02.283Z,100.00
2022-10-23T04:54:29.099Z,100.00
2022-10-23T04:56:55.936Z,100.00
2022-10-23T04:59:22.848Z,100.00
2022-10-23T05:01:49.713Z,100.00
2022-10-23T05:04:16.593Z,100.00
2022-10-23T05:06:43.417Z,100.00
2022-10-23T05:09:10.310Z,100.00
2022-10-23T05:11:37.168Z,100.00
2022-10-23T05:14:03.925Z,100.00
2022-10-23T05:16:39.879Z,100.00
2022-10-23T05:19:07.988Z,100.00
2022-10-23T05:21:36.368Z,100.00
2022-10-23T05:24:03.332Z,100.00
2022-10-23T05:26:31.855Z,100.00
2022-10-23T05:28:58.648Z,100.00
2022-10-23T05:31:25.872Z,100.00
2022-10-23T05:33:54.411Z,100.00
2022-10-23T05:36:21.787Z,100.00
2022-10-23T05:38:48.606Z,100.00
2022-10-23T05:41:15.551Z,100.00
2022-10-23T05:43:42.378Z,100.00
2022-10-23T05:46:09.268Z,100.00
2022-10-23T05:48:36.160Z,100.00
2022-10-23T05:51:05.300Z,100.00
2022-10-23T05:53:32.346Z,100.00
2022-10-23T05:56:08.720Z,100.00
2022-10-23T05:58:35.625Z,100.00
2022-10-23T06:01:10.287Z,100.00
2022-10-23T06:03:38.272Z,100.00
2022-10-23T06:06:06.490Z,100.00
2022-10-23T06:08:33.961Z,100.00
2022-10-23T06:11:12.483Z,100.00
2022-10-23T06:13:39.872Z,100.00
2022-10-23T06:16:11.379Z,100.00
2022-10-23T06:18:38.248Z,100.00
2022-10-23T06:21:05.500Z,100.00
2022-10-23T06:23:33.648Z,100.00
2022-10-23T06:26:00.664Z,100.00
2022-10-23T06:28:27.875Z,100.00
2022-10-23T06:30:54.886Z,100.00
2022-10-23T06:33:21.755Z,100.00
2022-10-23T06:35:48.726Z,100.00
2022-10-23T06:38:15.612Z,100.00
2022-10-23T06:40:42.453Z,100.00
2022-10-23T06:43:09.308Z,100.00
2022-10-23T06:45:36.069Z,100.00
2022-10-23T06:48:02.855Z,100.00
2022-10-23T06:50:32.565Z,100.00
2022-10-23T06:52:59.331Z,100.00
2022-10-23T06:55:26.182Z,100.00
2022-10-23T06:57:53.680Z,100.00
2022-10-23T07:00:21.620Z,100.00
2022-10-23T07:02:48.524Z,100.00
2022-10-23T07:05:15.525Z,100.00
2022-10-23T07:07:42.390Z,100.00
2022-10-23T07:10:09.681Z,100.00
2022-10-23T07:12:37.620Z,100.00
2022-10-23T07:15:06.618Z,100.00
2022-10-23T07:17:34.131Z,100.00
2022-10-23T07:20:01.127Z,100.00
2022-10-23T07:22:27.984Z,100.00
2022-10-23T07:24:54.774Z,100.00
2022-10-23T07:27:21.617Z,100.00
2022-10-23T07:29:51.931Z,100.00
2022-10-23T07:32:19.111Z,100.00
2022-10-23T07:34:45.900Z,100.00
2022-10-23T07:37:12.732Z,100.00
2022-10-23T07:39:39.532Z,100.00
2022-10-23T07:42:06.367Z,100.00
2022-10-23T07:44:33.195Z,100.00
2022-10-23T07:47:00.015Z,100.00
2022-10-23T07:49:26.895Z,100.00
2022-10-23T07:51:54.041Z,100.00
2022-10-23T07:54:21.016Z,100.00
2022-10-23T07:56:47.875Z,100.00
2022-10-23T07:59:14.928Z,100.00
2022-10-23T08:01:42.733Z,100.00
2022-10-23T08:04:10.711Z,100.00
2022-10-23T08:06:38.500Z,100.00
2022-10-23T08:09:06.741Z,100.00
2022-10-23T08:11:35.892Z,100.00
2022-10-23T08:14:04.689Z,100.00
2022-10-23T08:16:34.368Z,100.00
2022-10-23T08:19:01.506Z,100.00
2022-10-23T08:21:28.456Z,100.00
2022-10-23T08:23:59.788Z,100.00
2022-10-23T08:26:30.607Z,100.00
2022-10-23T08:29:00.572Z,100.00
2022-10-23T08:31:28.080Z,100.00
2022-10-23T08:33:54.857Z,100.00
2022-10-23T08:36:23.839Z,100.00
2022-10-23T08:38:53.633Z,100.00
2022-10-23T08:41:33.775Z,100.00
2022-10-23T08:44:24.161Z,100.00
2022-10-23T08:46:59.215Z,100.00
2022-10-23T08:49:37.925Z,100.00
2022-10-23T08:52:27.864Z,100.00
2022-10-23T08:55:13.282Z,100.00
2022-10-23T08:57:54.678Z,100.00
2022-10-23T09:00:21.610Z,100.00
2022-10-23T09:02:50.709Z,100.00
2022-10-23T09:05:48.716Z,100.00
2022-10-23T09:08:18.523Z,100.00
2022-10-23T09:10:56.440Z,100.00
2022-10-23T09:13:38.103Z,99.95
2022-10-23T09:16:23.448Z,99.34
2022-10-23T09:18:50.476Z,98.15
2022-10-23T09:21:17.683Z,97.63
2022-10-23T09:23:44.635Z,97.02
2022-10-23T09:26:16.657Z,96.86
2022-10-23T09:28:56.368Z,96.29
2022-10-23T09:31:23.308Z,94.97
2022-10-23T09:33:59.806Z,93.68
2022-10-23T09:36:29.237Z,96.23
2022-10-23T09:38:58.985Z,93.24
2022-10-23T09:41:37.067Z,93.17
2022-10-23T09:44:47.882Z,92.06
2022-10-23T09:47:23.993Z,90.14
2022-10-23T09:49:54.158Z,90.83
2022-10-23T09:52:29.187Z,90.21
2022-10-23T09:55:02.641Z,89.58
2022-10-23T09:57:35.723Z,89.19
2022-10-23T10:00:17.033Z,88.56
2022-10-23T10:03:05.195Z,87.78
2022-10-23T10:05:36.913Z,87.71
2022-10-23T10:08:05.820Z,85.87
2022-10-23T10:10:39.947Z,86.05
2022-10-23T10:13:26.622Z,85.20
2022-10-23T10:15:57.159Z,84.40
2022-10-23T10:18:32.626Z,84.80
2022-10-23T10:21:25.425Z,82.13
2022-10-23T10:24:02.084Z,82.49
2022-10-23T10:29:18.006Z,81.63
2022-10-23T10:32:06.302Z,80.53
2022-10-23T10:34:49.067Z,81.00
2022-10-23T10:37:26.635Z,80.57
2022-10-23T10:40:15.259Z,79.89
2022-10-23T10:43:08.391Z,79.85
2022-10-23T10:45:42.184Z,80.11
2022-10-23T10:48:37.569Z,79.22
2022-10-23T10:51:09.487Z,79.65
2022-10-23T10:54:01.152Z,77.55
2022-10-23T10:56:29.970Z,80.23
2022-10-23T10:59:02.059Z,78.97
2022-10-23T11:01:35.013Z,79.53
2022-10-23T11:04:14.639Z,79.26
2022-10-23T11:06:44.819Z,78.95
2022-10-23T11:09:21.125Z,78.64
2022-10-23T11:11:48.775Z,78.68
2022-10-23T11:14:24.088Z,78.79
2022-10-23T11:17:01.513Z,77.95
2022-10-23T11:19:37.726Z,77.42
2022-10-23T11:22:28.323Z,76.54
2022-10-23T11:24:58.401Z,77.12
2022-10-23T11:27:35.356Z,76.61
2022-10-23T11:30:15.851Z,77.27
2022-10-23T11:32:55.441Z,76.88
2022-10-23T11:36:00.612Z,77.01
2022-10-23T11:38:34.230Z,76.56
2022-10-23T11:41:06.437Z,75.83
2022-10-23T11:43:36.946Z,75.99
2022-10-23T11:46:35.324Z,74.56
2022-10-23T11:49:07.374Z,74.65
2022-10-23T11:51:37.405Z,74.64
2022-10-23T11:54:10.236Z,74.48
2022-10-23T11:56:38.656Z,75.13
2022-10-23T11:59:42.885Z,74.25
2022-10-23T12:02:33.835Z,73.48
2022-10-23T12:05:29.600Z,72.97
2022-10-23T12:07:59.214Z,72.59
2022-10-23T12:10:43.387Z,72.76
2022-10-23T12:13:29.077Z,71.92
2022-10-23T12:15:58.580Z,71.86
2022-10-23T12:18:28.130Z,71.99
2022-10-23T12:20:59.711Z,71.44
2022-10-23T12:23:48.501Z,71.34
2022-10-23T12:26:35.398Z,71.00
2022-10-23T12:29:36.117Z,71.10
2022-10-23T12:32:30.853Z,70.76
2022-10-23T12:35:36.592Z,71.00
2022-10-23T12:38:12.384Z,70.53
2022-10-23T12:40:39.183Z,70.82
2022-10-23T12:43:36.365Z,70.31
2022-10-23T12:46:29.423Z,69.61
2022-10-23T12:48:58.105Z,70.08
2022-10-23T12:51:34.174Z,69.72
2022-10-23T12:54:02.009Z,69.67
2022-10-23T12:56:35.508Z,69.27
2022-10-23T12:59:03.958Z,69.05
2022-10-23T13:01:34.649Z,69.11
2022-10-23T13:04:07.516Z,68.98
2022-10-23T13:06:34.841Z,68.55
2022-10-23T13:09:01.766Z,68.43
2022-10-23T13:11:29.985Z,68.15
2022-10-23T13:13:57.256Z,67.44
2022-10-23T13:16:26.112Z,67.32
2022-10-23T13:18:54.436Z,67.69
2022-10-23T13:21:27.047Z,67.69
2022-10-23T13:23:54.497Z,68.06
2022-10-23T13:26:21.629Z,68.37
2022-10-23T13:28:48.499Z,68.18
2022-10-23T13:31:15.277Z,68.33
2022-10-23T13:33:45.081Z,68.62
2022-10-23T13:36:14.825Z,68.71
2022-10-23T13:38:47.119Z,69.25
2022-10-23T13:41:18.937Z,69.82
2022-10-23T13:43:47.426Z,70.39
2022-10-23T13:46:15.143Z,70.78
2022-10-23T13:48:42.216Z,70.51
2022-10-23T13:51:22.698Z,71.36
2022-10-23T13:53:50.312Z,71.19
2022-10-23T13:56:19.568Z,71.95
2022-10-23T13:58:46.386Z,72.38
2022-10-23T14:01:32.699Z,72.82
2022-10-23T14:04:00.026Z,73.40
2022-10-23T14:06:27.013Z,73.77
2022-10-23T14:08:53.840Z,74.46
2022-10-23T14:11:21.391Z,74.80
2022-10-23T14:13:49.028Z,75.45
2022-10-23T14:16:18.279Z,75.95
2022-10-23T14:18:45.232Z,77.15
2022-10-23T14:21:14.085Z,77.47
2022-10-23T14:23:41.002Z,77.99
2022-10-23T14:26:16.860Z,78.72
2022-10-23T14:28:44.320Z,79.11
2022-10-23T14:31:13.391Z,79.18
2022-10-23T14:33:41.065Z,79.57
2022-10-23T14:36:08.573Z,79.66
2022-10-23T14:38:35.501Z,80.00
2022-10-23T14:41:02.889Z,80.03
2022-10-23T14:43:29.683Z,80.28
2022-10-23T14:45:56.489Z,80.46
2022-10-23T14:48:24.472Z,80.53
2022-10-23T14:50:56.747Z,80.49
2022-10-23T14:53:24.454Z,80.77
2022-10-23T14:55:51.367Z,80.71
2022-10-23T14:58:18.474Z,81.08
2022-10-23T15:00:45.339Z,81.34
2022-10-23T15:03:12.251Z,81.74
2022-10-23T15:05:41.767Z,81.94
2022-10-23T15:08:08.616Z,81.90
2022-10-23T15:10:37.413Z,82.13
2022-10-23T15:13:04.405Z,82.40
2022-10-23T15:15:31.538Z,82.45
2022-10-23T15:17:58.527Z,82.70
2022-10-23T15:20:25.382Z,82.88
2022-10-23T15:22:52.164Z,83.51
2022-10-23T15:25:19.292Z,83.47
2022-10-23T15:27:46.352Z,83.72
2022-10-23T15:30:14.608Z,84.04
2022-10-23T15:32:41.826Z,84.41
2022-10-23T15:35:08.869Z,84.30
2022-10-23T15:37:36.507Z,85.16
2022-10-23T15:40:03.706Z,85.12
2022-10-23T15:42:31.169Z,85.46
2022-10-23T15:44:58.012Z,85.86
2022-10-23T15:47:25.164Z,85.81
2022-10-23T15:49:52.106Z,86.17
2022-10-23T15:52:19.118Z,86.43
2022-10-23T15:54:45.964Z,86.76
2022-10-23T15:57:12.791Z,87.08
2022-10-23T15:59:39.937Z,87.16
2022-10-23T16:02:07.110Z,87.39
2022-10-23T16:04:35.374Z,87.65
2022-10-23T16:07:02.241Z,87.95
2022-10-23T16:09:29.786Z,87.81
2022-10-23T16:11:56.673Z,88.04
2022-10-23T16:14:23.602Z,88.38
2022-10-23T16:16:50.606Z,88.09
2022-10-23T16:19:18.673Z,88.25
2022-10-23T16:21:45.781Z,88.23
2022-10-23T16:24:12.636Z,88.28
2022-10-23T16:26:39.679Z,88.35
2022-10-23T16:29:08.516Z,88.22
2022-10-23T16:31:35.656Z,88.50
2022-10-23T16:34:04.826Z,88.38
2022-10-23T16:36:32.714Z,88.79
2022-10-23T16:39:02.814Z,88.55
2022-10-23T16:41:29.765Z,88.43
2022-10-23T16:43:56.732Z,88.52
2022-10-23T16:46:23.656Z,88.45
2022-10-23T16:48:51.709Z,88.66
2022-10-23T16:51:21.781Z,88.78
2022-10-23T16:53:49.316Z,89.40
2022-10-23T16:56:18.927Z,89.05
2022-10-23T16:58:45.900Z,89.17
2022-10-23T17:01:16.018Z,89.23
2022-10-23T17:03:44.853Z,89.46
2022-10-23T17:06:13.239Z,89.53
2022-10-23T17:08:40.753Z,89.46
2022-10-23T17:11:11.445Z,89.57
2022-10-23T17:13:42.688Z,89.51
2022-10-23T17:16:18.678Z,89.45
2022-10-23T17:18:46.555Z,89.85
2022-10-23T17:21:15.551Z,89.65
2022-10-23T17:23:43.213Z,89.67
2022-10-23T17:26:12.517Z,89.83
2022-10-23T17:28:42.268Z,89.71
2022-10-23T17:31:14.575Z,89.69
2022-10-23T17:33:42.331Z,90.65
2022-10-23T17:36:10.921Z,90.16
2022-10-23T17:38:39.437Z,90.28
2022-10-23T17:41:08.597Z,90.66
2022-10-23T17:43:36.736Z,91.28
2022-10-23T17:46:05.585Z,91.37
2022-10-23T17:48:33.256Z,91.68
2022-10-23T17:51:06.226Z,91.63
2022-10-23T17:53:34.866Z,91.38
2022-10-23T17:56:07.711Z,91.25
2022-10-23T17:58:35.787Z,91.20
2022-10-23T18:01:07.605Z,91.37
2022-10-23T18:03:35.489Z,92.00
2022-10-23T18:06:17.419Z,91.53
2022-10-23T18:08:45.707Z,91.70
2022-10-23T18:11:18.668Z,91.57
2022-10-23T18:13:46.105Z,91.59
2022-10-23T18:16:13.693Z,91.64
2022-10-23T18:18:41.919Z,91.70
2022-10-23T18:21:09.261Z,91.81
2022-10-23T18:23:36.804Z,91.89
2022-10-23T18:26:05.173Z,92.48
2022-10-23T18:28:32.649Z,92.90
2022-10-23T18:31:02.043Z,93.09
2022-10-23T18:33:29.191Z,93.17
2022-10-23T18:35:56.912Z,93.05
2022-10-23T18:38:23.742Z,93.06
2022-10-23T18:40:54.560Z,93.27
2022-10-23T18:43:42.132Z,93.19
2022-10-23T18:46:14.664Z,93.26
2022-10-23T18:48:42.703Z,93.34
2022-10-23T18:51:21.233Z,93.55
2022-10-23T18:53:49.544Z,93.66
2022-10-23T18:56:22.769Z,93.66
2022-10-23T18:58:51.082Z,93.62
2022-10-23T19:01:19.588Z,93.48
2022-10-23T19:03:47.489Z,93.67
2022-10-23T19:06:15.702Z,93.73
2022-10-23T19:08:44.156Z,93.65
2022-10-23T19:11:12.411Z,93.61
2022-10-23T19:13:40.453Z,93.74
2022-10-23T19:16:13.067Z,93.70
2022-10-23T19:18:47.897Z,94.06
2022-10-23T19:21:18.056Z,94.39
2022-10-23T19:23:45.145Z,94.71
2022-10-23T19:26:13.359Z,95.15
2022-10-23T19:28:43.314Z,95.42
2022-10-23T19:31:11.637Z,95.19
2022-10-23T19:33:39.035Z,95.37
2022-10-23T19:36:11.133Z,95.58
2022-10-23T19:38:41.422Z,95.40
2022-10-23T19:41:08.597Z,95.97
2022-10-23T19:43:37.659Z,95.78
2022-10-23T19:46:09.364Z,95.72
2022-10-23T19:48:43.591Z,95.76
2022-10-23T19:51:12.951Z,95.84
2022-10-23T19:53:41.375Z,95.72
2022-10-23T19:56:10.375Z,95.88
2022-10-23T19:58:37.643Z,95.71
2022-10-23T20:01:14.271Z,95.53
2022-10-23T20:03:42.184Z,96.19
2022-10-23T20:06:13.895Z,95.63
2022-10-23T20:08:41.572Z,95.77
2022-10-23T20:11:09.428Z,95.66
2022-10-23T20:13:36.687Z,95.65
2022-10-23T20:16:04.000Z,95.57
2022-10-23T20:18:31.070Z,95.44
2022-10-23T20:21:01.282Z,95.55
2022-10-23T20:23:28.190Z,95.51
2022-10-23T20:25:55.260Z,95.59
2022-10-23T20:28:22.224Z,95.58
2022-10-23T20:30:49.055Z,95.74
2022-10-23T20:33:16.029Z,95.86
2022-10-23T20:35:43.605Z,95.81
2022-10-23T20:38:10.812Z,95.90
2022-10-23T20:40:37.967Z,96.09
2022-10-23T20:43:05.023Z,95.81
2022-10-23T20:45:32.137Z,96.19
2022-10-23T20:47:59.047Z,96.11
2022-10-23T20:50:26.211Z,96.07
2022-10-23T20:52:53.286Z,96.07
2022-10-23T20:55:20.688Z,96.21
2022-10-23T20:57:48.727Z,96.33
2022-10-23T21:00:15.721Z,96.50
2022-10-23T21:02:45.773Z,96.82
2022-10-23T21:05:14.286Z,96.80
2022-10-23T21:07:41.167Z,96.95
2022-10-23T21:10:08.340Z,97.03
2022-10-23T21:12:35.126Z,97.17
2022-10-23T21:15:01.964Z,97.28
2022-10-23T21:17:35.362Z,97.28
2022-10-23T21:20:02.734Z,97.35
2022-10-23T21:22:29.701Z,97.36
2022-10-23T21:24:58.360Z,97.42
2022-10-23T21:27:25.229Z,97.50
2022-10-23T21:29:52.012Z,97.61
2022-10-23T21:32:20.313Z,97.70
2022-10-23T21:34:47.132Z,97.93
2022-10-23T21:37:14.876Z,98.00
2022-10-23T21:39:43.175Z,98.06
2022-10-23T21:42:10.653Z,98.20
2022-10-23T21:44:37.584Z,98.32
2022-10-23T21:47:04.563Z,98.35
2022-10-23T21:49:31.948Z,98.30
2022-10-23T21:51:58.774Z,98.28
2022-10-23T21:54:25.641Z,98.24
2022-10-23T21:56:55.633Z,98.26
2022-10-23T21:59:27.654Z,99.35
2022-10-23T22:01:57.135Z,98.87
2022-10-23T22:04:24.062Z,99.26
2022-10-23T22:06:54.856Z,98.95
2022-10-23T22:09:22.241Z,98.83
2022-10-23T22:11:53.126Z,98.83
2022-10-23T22:14:20.463Z,98.89
2022-10-23T22:16:48.082Z,99.04
2022-10-23T22:19:17.043Z,98.97
2022-10-23T22:21:43.997Z,99.11
2022-10-23T22:24:10.856Z,99.28
2022-10-23T22:26:40.822Z,99.38
2022-10-23T22:29:10.305Z,99.30
2022-10-23T22:31:38.083Z,99.81
2022-10-23T22:34:18.672Z,100.00
2022-10-23T22:36:54.719Z,100.00
2022-10-23T22:39:22.036Z,100.00
2022-10-23T22:41:48.983Z,100.00
2022-10-23T22:44:15.889Z,100.00
2022-10-23T22:46:43.468Z,100.00
2022-10-23T22:49:10.390Z,99.84
2022-10-23T22:51:38.632Z,99.74
2022-10-23T22:54:05.585Z,100.00
2022-10-23T22:56:32.475Z,100.00
2022-10-23T22:58:59.311Z,100.00
2022-10-23T23:01:33.127Z,100.00
2022-10-23T23:04:08.858Z,100.00
2022-10-23T23:06:46.474Z,100.00
2022-10-23T23:09:17.071Z,100.00
2022-10-23T23:11:51.694Z,100.00
2022-10-23T23:14:23.200Z,100.00
2022-10-23T23:16:52.393Z,100.00
2022-10-23T23:19:19.386Z,100.00
2022-10-23T23:21:46.157Z,100.00
2022-10-23T23:24:12.980Z,100.00
2022-10-23T23:26:40.090Z,100.00
2022-10-23T23:29:06.895Z,100.00
2022-10-23T23:31:33.756Z,100.00
2022-10-23T23:34:01.024Z,100.00
2022-10-23T23:36:28.455Z,100.00
2022-10-23T23:38:56.441Z,100.00
2022-10-23T23:41:24.232Z,100.00
2022-10-23T23:43:53.697Z,100.00
2022-10-23T23:46:20.562Z,100.00
2022-10-23T23:48:49.265Z,100.00
2022-10-23T23:51:21.300Z,100.00
2022-10-23T23:53:48.613Z,100.00
2022-10-23T23:56:15.492Z,100.00
2022-10-23T23:58:42.314Z,100.00
